sensor_id;sensor_type;location;lat;lon;timestamp;pressure;altitude;pressure_sealevel;temperature;humidity
68197;BME280;55019;49.382;11.358;2023-08-31T00:00:42;96014.63;;;11.81;100.00
68197;BME280;55019;49.382;11.358;2023-08-31T00:03:07;96018.50;;;11.70;100.00
68197;BME280;55019;49.382;11.358;2023-08-31T00:05:42;96025.25;;;11.71;100.00
68197;BME280;55019;49.382;11.358;2023-08-31T00:08:09;96034.03;;;11.91;100.00
68197;BME280;55019;49.382;11.358;2023-08-31T00:10:35;96025.97;;;12.01;100.00
68197;BME280;55019;49.382;11.358;2023-08-31T00:13:02;96021.47;;;12.09;100.00
68197;BME280;55019;49.382;11.358;2023-08-31T00:15:27;96020.88;;;12.07;100.00
68197;BME280;55019;49.382;11.358;2023-08-31T00:17:54;96029.91;;;12.18;100.00
68197;BME280;55019;49.382;11.358;2023-08-31T00:20:20;96030.91;;;12.38;100.00
68197;BME280;55019;49.382;11.358;2023-08-31T00:22:47;96021.28;;;12.59;100.00
68197;BME280;55019;49.382;11.358;2023-08-31T00:25:13;96024.53;;;12.40;100.00
68197;BME280;55019;49.382;11.358;2023-08-31T00:27:40;96015.91;;;12.33;100.00
68197;BME280;55019;49.382;11.358;2023-08-31T00:30:10;96030.06;;;12.58;100.00
68197;BME280;55019;49.382;11.358;2023-08-31T00:32:37;96024.19;;;12.22;100.00
68197;BME280;55019;49.382;11.358;2023-08-31T00:35:05;96020.69;;;12.57;100.00
68197;BME280;55019;49.382;11.358;2023-08-31T00:37:31;96022.38;;;12.71;100.00
68197;BME280;55019;49.382;11.358;2023-08-31T00:39:56;96028.47;;;12.57;100.00
68197;BME280;55019;49.382;11.358;2023-08-31T00:42:22;96025.56;;;12.46;100.00
68197;BME280;55019;49.382;11.358;2023-08-31T00:44:50;96030.53;;;12.68;100.00
68197;BME280;55019;49.382;11.358;2023-08-31T00:47:16;96038.22;;;12.55;100.00
68197;BME280;55019;49.382;11.358;2023-08-31T00:49:42;96030.94;;;12.72;100.00
68197;BME280;55019;49.382;11.358;2023-08-31T00:52:08;96032.50;;;12.66;100.00
68197;BME280;55019;49.382;11.358;2023-08-31T00:54:35;96024.22;;;12.77;100.00
68197;BME280;55019;49.382;11.358;2023-08-31T00:57:02;96034.81;;;12.82;100.00
68197;BME280;55019;49.382;11.358;2023-08-31T00:59:29;96020.41;;;12.73;100.00
68197;BME280;55019;49.382;11.358;2023-08-31T01:07:52;96027.81;;;12.28;100.00
68197;BME280;55019;49.382;11.358;2023-08-31T01:13:12;96026.22;;;12.06;100.00
68197;BME280;55019;49.382;11.358;2023-08-31T01:15:46;96021.59;;;12.01;100.00
68197;BME280;55019;49.382;11.358;2023-08-31T01:18:15;96021.72;;;12.14;100.00
68197;BME280;55019;49.382;11.358;2023-08-31T01:20:42;96026.03;;;12.07;100.00
68197;BME280;55019;49.382;11.358;2023-08-31T01:23:16;96029.34;;;12.22;100.00
68197;BME280;55019;49.382;11.358;2023-08-31T01:25:43;96020.75;;;12.43;100.00
68197;BME280;55019;49.382;11.358;2023-08-31T01:28:11;96032.59;;;12.52;100.00
68197;BME280;55019;49.382;11.358;2023-08-31T01:30:37;96028.06;;;12.33;100.00
68197;BME280;55019;49.382;11.358;2023-08-31T01:33:03;96025.97;;;12.49;100.00
68197;BME280;55019;49.382;11.358;2023-08-31T01:35:37;96023.31;;;12.64;100.00
68197;BME280;55019;49.382;11.358;2023-08-31T01:38:07;96023.66;;;12.33;100.00
68197;BME280;55019;49.382;11.358;2023-08-31T01:40:40;96023.75;;;12.46;100.00
68197;BME280;55019;49.382;11.358;2023-08-31T01:43:10;96034.75;;;12.48;100.00
68197;BME280;55019;49.382;11.358;2023-08-31T01:45:37;96031.06;;;12.57;100.00
68197;BME280;55019;49.382;11.358;2023-08-31T01:48:04;96041.28;;;12.65;100.00
68197;BME280;55019;49.382;11.358;2023-08-31T01:50:30;96040.00;;;12.55;100.00
68197;BME280;55019;49.382;11.358;2023-08-31T01:52:56;96037.00;;;12.51;100.00
68197;BME280;55019;49.382;11.358;2023-08-31T01:55:23;96043.41;;;12.34;100.00
68197;BME280;55019;49.382;11.358;2023-08-31T01:57:48;96041.44;;;12.36;100.00
68197;BME280;55019;49.382;11.358;2023-08-31T02:00:21;96041.19;;;12.52;100.00
68197;BME280;55019;49.382;11.358;2023-08-31T02:02:47;96036.09;;;12.65;100.00
68197;BME280;55019;49.382;11.358;2023-08-31T02:05:13;96041.97;;;12.53;100.00
68197;BME280;55019;49.382;11.358;2023-08-31T02:07:39;96048.22;;;12.37;100.00
68197;BME280;55019;49.382;11.358;2023-08-31T02:10:06;96047.41;;;12.37;100.00
68197;BME280;55019;49.382;11.358;2023-08-31T02:12:32;96057.22;;;12.41;100.00
68197;BME280;55019;49.382;11.358;2023-08-31T02:14:59;96053.28;;;12.24;100.00
68197;BME280;55019;49.382;11.358;2023-08-31T02:17:25;96053.28;;;12.24;100.00
68197;BME280;55019;49.382;11.358;2023-08-31T02:19:51;96050.69;;;12.24;100.00
68197;BME280;55019;49.382;11.358;2023-08-31T02:22:17;96060.00;;;12.19;100.00
68197;BME280;55019;49.382;11.358;2023-08-31T02:24:42;96049.84;;;12.17;100.00
68197;BME280;55019;49.382;11.358;2023-08-31T02:27:08;96042.91;;;12.24;100.00
68197;BME280;55019;49.382;11.358;2023-08-31T02:29:34;96066.78;;;12.20;100.00
68197;BME280;55019;49.382;11.358;2023-08-31T02:31:59;96060.59;;;12.21;100.00
68197;BME280;55019;49.382;11.358;2023-08-31T02:34:25;96064.00;;;12.21;100.00
68197;BME280;55019;49.382;11.358;2023-08-31T02:36:51;96065.69;;;12.29;100.00
68197;BME280;55019;49.382;11.358;2023-08-31T02:39:16;96076.34;;;12.40;100.00
68197;BME280;55019;49.382;11.358;2023-08-31T02:41:42;96070.16;;;12.41;100.00
68197;BME280;55019;49.382;11.358;2023-08-31T02:44:08;96062.75;;;12.38;100.00
68197;BME280;55019;49.382;11.358;2023-08-31T02:46:34;96062.53;;;12.33;100.00
68197;BME280;55019;49.382;11.358;2023-08-31T02:48:59;96064.47;;;12.25;100.00
68197;BME280;55019;49.382;11.358;2023-08-31T02:51:25;96071.78;;;12.21;100.00
68197;BME280;55019;49.382;11.358;2023-08-31T02:53:51;96067.22;;;12.23;100.00
68197;BME280;55019;49.382;11.358;2023-08-31T02:56:18;96072.31;;;12.17;100.00
68197;BME280;55019;49.382;11.358;2023-08-31T02:58:44;96067.09;;;12.10;100.00
68197;BME280;55019;49.382;11.358;2023-08-31T03:01:11;96057.72;;;12.09;100.00
68197;BME280;55019;49.382;11.358;2023-08-31T03:03:39;96056.50;;;12.05;100.00
68197;BME280;55019;49.382;11.358;2023-08-31T03:06:09;96059.19;;;11.97;100.00
68197;BME280;55019;49.382;11.358;2023-08-31T03:08:36;96067.84;;;12.04;100.00
68197;BME280;55019;49.382;11.358;2023-08-31T03:11:05;96059.00;;;11.99;100.00
68197;BME280;55019;49.382;11.358;2023-08-31T03:13:34;96059.50;;;12.09;100.00
68197;BME280;55019;49.382;11.358;2023-08-31T03:16:00;96063.91;;;12.08;100.00
68197;BME280;55019;49.382;11.358;2023-08-31T03:18:26;96054.69;;;12.06;100.00
68197;BME280;55019;49.382;11.358;2023-08-31T03:20:54;96068.09;;;12.09;100.00
68197;BME280;55019;49.382;11.358;2023-08-31T03:23:20;96067.47;;;12.07;100.00
68197;BME280;55019;49.382;11.358;2023-08-31T03:25:45;96072.78;;;12.20;100.00
68197;BME280;55019;49.382;11.358;2023-08-31T03:28:12;96080.66;;;12.12;100.00
68197;BME280;55019;49.382;11.358;2023-08-31T03:30:38;96081.16;;;12.01;100.00
68197;BME280;55019;49.382;11.358;2023-08-31T03:33:04;96079.06;;;12.11;100.00
68197;BME280;55019;49.382;11.358;2023-08-31T03:35:31;96088.63;;;11.96;100.00
68197;BME280;55019;49.382;11.358;2023-08-31T03:37:59;96096.69;;;12.01;100.00
68197;BME280;55019;49.382;11.358;2023-08-31T03:40:26;96084.50;;;12.16;100.00
68197;BME280;55019;49.382;11.358;2023-08-31T03:42:52;96097.03;;;11.98;100.00
68197;BME280;55019;49.382;11.358;2023-08-31T03:45:20;96104.22;;;11.82;100.00
68197;BME280;55019;49.382;11.358;2023-08-31T03:47:45;96103.00;;;11.78;100.00
68197;BME280;55019;49.382;11.358;2023-08-31T03:50:12;96095.75;;;11.73;100.00
68197;BME280;55019;49.382;11.358;2023-08-31T03:52:38;96108.78;;;11.80;100.00
68197;BME280;55019;49.382;11.358;2023-08-31T03:55:04;96104.50;;;11.72;100.00
68197;BME280;55019;49.382;11.358;2023-08-31T03:57:30;96111.91;;;11.61;100.00
68197;BME280;55019;49.382;11.358;2023-08-31T04:00:01;96124.13;;;11.81;100.00
68197;BME280;55019;49.382;11.358;2023-08-31T04:02:42;96119.56;;;11.83;100.00
68197;BME280;55019;49.382;11.358;2023-08-31T04:05:08;96130.16;;;12.03;100.00
68197;BME280;55019;49.382;11.358;2023-08-31T04:07:35;96129.81;;;11.91;100.00
68197;BME280;55019;49.382;11.358;2023-08-31T04:10:01;96123.66;;;11.92;100.00
68197;BME280;55019;49.382;11.358;2023-08-31T04:12:26;96127.34;;;11.83;100.00
68197;BME280;55019;49.382;11.358;2023-08-31T04:14:54;96129.28;;;11.81;100.00
68197;BME280;55019;49.382;11.358;2023-08-31T04:17:20;96130.75;;;11.69;100.00
68197;BME280;55019;49.382;11.358;2023-08-31T04:19:46;96135.13;;;11.54;100.00
68197;BME280;55019;49.382;11.358;2023-08-31T04:22:11;96149.31;;;11.58;100.00
68197;BME280;55019;49.382;11.358;2023-08-31T04:24:37;96151.34;;;11.63;100.00
68197;BME280;55019;49.382;11.358;2023-08-31T04:27:03;96148.97;;;11.61;100.00
68197;BME280;55019;49.382;11.358;2023-08-31T04:29:29;96150.22;;;11.65;100.00
68197;BME280;55019;49.382;11.358;2023-08-31T04:31:54;96157.16;;;11.50;100.00
68197;BME280;55019;49.382;11.358;2023-08-31T04:34:20;96161.75;;;11.41;100.00
68197;BME280;55019;49.382;11.358;2023-08-31T04:36:46;96164.50;;;11.61;100.00
68197;BME280;55019;49.382;11.358;2023-08-31T04:39:12;96162.16;;;11.66;100.00
68197;BME280;55019;49.382;11.358;2023-08-31T04:41:38;96164.28;;;11.63;100.00
68197;BME280;55019;49.382;11.358;2023-08-31T04:44:03;96170.38;;;11.55;100.00
68197;BME280;55019;49.382;11.358;2023-08-31T04:46:29;96179.03;;;11.62;100.00
68197;BME280;55019;49.382;11.358;2023-08-31T04:48:55;96181.19;;;11.37;100.00
68197;BME280;55019;49.382;11.358;2023-08-31T04:51:32;96190.13;;;11.34;100.00
68197;BME280;55019;49.382;11.358;2023-08-31T04:53:58;96189.75;;;11.23;100.00
68197;BME280;55019;49.382;11.358;2023-08-31T04:56:24;96192.72;;;11.34;100.00
68197;BME280;55019;49.382;11.358;2023-08-31T04:58:50;96195.66;;;11.31;100.00
68197;BME280;55019;49.382;11.358;2023-08-31T05:01:16;96192.72;;;11.34;100.00
68197;BME280;55019;49.382;11.358;2023-08-31T05:03:42;96206.00;;;11.45;100.00
68197;BME280;55019;49.382;11.358;2023-08-31T05:06:07;96205.31;;;11.51;100.00
68197;BME280;55019;49.382;11.358;2023-08-31T05:08:33;96201.03;;;11.44;100.00
68197;BME280;55019;49.382;11.358;2023-08-31T05:10:59;96208.59;;;11.45;100.00
68197;BME280;55019;49.382;11.358;2023-08-31T05:13:25;96214.06;;;11.50;100.00
68197;BME280;55019;49.382;11.358;2023-08-31T05:15:50;96210.38;;;11.45;100.00
68197;BME280;55019;49.382;11.358;2023-08-31T05:18:16;96215.84;;;11.50;100.00
68197;BME280;55019;49.382;11.358;2023-08-31T05:20:45;96216.25;;;11.61;100.00
68197;BME280;55019;49.382;11.358;2023-08-31T05:23:12;96220.66;;;11.53;100.00
68197;BME280;55019;49.382;11.358;2023-08-31T05:25:44;96220.84;;;11.51;100.00
68197;BME280;55019;49.382;11.358;2023-08-31T05:28:10;96232.84;;;11.81;100.00
68197;BME280;55019;49.382;11.358;2023-08-31T05:30:35;96227.13;;;11.71;100.00
68197;BME280;55019;49.382;11.358;2023-08-31T05:33:01;96229.47;;;11.81;100.00
68197;BME280;55019;49.382;11.358;2023-08-31T05:35:28;96230.16;;;11.60;100.00
68197;BME280;55019;49.382;11.358;2023-08-31T05:37:54;96234.81;;;11.79;100.00
68197;BME280;55019;49.382;11.358;2023-08-31T05:40:21;96232.81;;;11.67;100.00
68197;BME280;55019;49.382;11.358;2023-08-31T05:42:47;96235.34;;;11.75;100.00
68197;BME280;55019;49.382;11.358;2023-08-31T05:45:12;96232.31;;;11.71;100.00
68197;BME280;55019;49.382;11.358;2023-08-31T05:47:40;96229.88;;;11.99;100.00
68197;BME280;55019;49.382;11.358;2023-08-31T05:50:06;96231.13;;;12.03;100.00
68197;BME280;55019;49.382;11.358;2023-08-31T05:52:32;96230.34;;;12.02;100.00
68197;BME280;55019;49.382;11.358;2023-08-31T05:54:58;96239.25;;;12.14;100.00
68197;BME280;55019;49.382;11.358;2023-08-31T05:57:25;96249.78;;;12.27;100.00
68197;BME280;55019;49.382;11.358;2023-08-31T05:59:53;96251.47;;;12.20;100.00
68197;BME280;55019;49.382;11.358;2023-08-31T06:02:19;96254.91;;;12.06;100.00
68197;BME280;55019;49.382;11.358;2023-08-31T06:04:44;96263.00;;;11.74;100.00
68197;BME280;55019;49.382;11.358;2023-08-31T06:07:10;96263.63;;;11.76;100.00
68197;BME280;55019;49.382;11.358;2023-08-31T06:09:36;96271.13;;;11.86;100.00
68197;BME280;55019;49.382;11.358;2023-08-31T06:12:04;96260.34;;;12.11;100.00
68197;BME280;55019;49.382;11.358;2023-08-31T06:14:30;96261.13;;;11.83;100.00
68197;BME280;55019;49.382;11.358;2023-08-31T06:16:55;96258.53;;;11.68;100.00
68197;BME280;55019;49.382;11.358;2023-08-31T06:19:21;96262.22;;;11.74;100.00
68197;BME280;55019;49.382;11.358;2023-08-31T06:21:47;96265.56;;;11.60;100.00
68197;BME280;55019;49.382;11.358;2023-08-31T06:24:13;96263.34;;;11.71;100.00
68197;BME280;55019;49.382;11.358;2023-08-31T06:26:41;96265.22;;;11.77;100.00
68197;BME280;55019;49.382;11.358;2023-08-31T06:29:06;96266.97;;;11.99;100.00
68197;BME280;55019;49.382;11.358;2023-08-31T06:31:34;96272.56;;;12.17;100.00
68197;BME280;55019;49.382;11.358;2023-08-31T06:34:00;96276.41;;;12.21;100.00
68197;BME280;55019;49.382;11.358;2023-08-31T06:36:26;96277.47;;;12.12;100.00
68197;BME280;55019;49.382;11.358;2023-08-31T06:38:51;96283.44;;;11.98;100.00
68197;BME280;55019;49.382;11.358;2023-08-31T06:41:17;96278.56;;;12.03;100.00
68197;BME280;55019;49.382;11.358;2023-08-31T06:43:43;96283.44;;;12.13;100.00
68197;BME280;55019;49.382;11.358;2023-08-31T06:46:08;96293.19;;;12.25;100.00
68197;BME280;55019;49.382;11.358;2023-08-31T06:48:34;96297.38;;;12.12;100.00
68197;BME280;55019;49.382;11.358;2023-08-31T06:51:00;96288.63;;;12.13;100.00
68197;BME280;55019;49.382;11.358;2023-08-31T06:53:29;96284.06;;;12.44;100.00
68197;BME280;55019;49.382;11.358;2023-08-31T06:55:57;96296.75;;;12.53;100.00
68197;BME280;55019;49.382;11.358;2023-08-31T06:58:37;96289.28;;;12.65;100.00
68197;BME280;55019;49.382;11.358;2023-08-31T07:01:05;96295.66;;;12.98;100.00
68197;BME280;55019;49.382;11.358;2023-08-31T07:03:31;96292.34;;;12.89;100.00
68197;BME280;55019;49.382;11.358;2023-08-31T07:05:57;96297.03;;;12.79;100.00
68197;BME280;55019;49.382;11.358;2023-08-31T07:08:23;96299.84;;;12.63;100.00
68197;BME280;55019;49.382;11.358;2023-08-31T07:10:51;96298.53;;;12.38;100.00
68197;BME280;55019;49.382;11.358;2023-08-31T07:13:17;96306.06;;;12.69;100.00
68197;BME280;55019;49.382;11.358;2023-08-31T07:15:43;96306.53;;;12.72;100.00
68197;BME280;55019;49.382;11.358;2023-08-31T07:18:11;96301.38;;;12.93;100.00
68197;BME280;55019;49.382;11.358;2023-08-31T07:20:37;96303.50;;;13.25;100.00
68197;BME280;55019;49.382;11.358;2023-08-31T07:23:03;96304.56;;;13.09;100.00
68197;BME280;55019;49.382;11.358;2023-08-31T07:25:29;96308.81;;;13.38;100.00
68197;BME280;55019;49.382;11.358;2023-08-31T07:27:55;96305.63;;;13.91;100.00
68197;BME280;55019;49.382;11.358;2023-08-31T07:30:21;96302.81;;;13.86;100.00
68197;BME280;55019;49.382;11.358;2023-08-31T07:32:46;96320.06;;;13.93;100.00
68197;BME280;55019;49.382;11.358;2023-08-31T07:35:12;96312.09;;;14.29;100.00
68197;BME280;55019;49.382;11.358;2023-08-31T07:37:38;96318.16;;;14.08;100.00
68197;BME280;55019;49.382;11.358;2023-08-31T07:40:04;96328.75;;;14.34;100.00
68197;BME280;55019;49.382;11.358;2023-08-31T07:42:34;96329.06;;;14.25;100.00
68197;BME280;55019;49.382;11.358;2023-08-31T07:45:00;96328.13;;;14.05;100.00
68197;BME280;55019;49.382;11.358;2023-08-31T07:47:26;96330.75;;;14.39;100.00
68197;BME280;55019;49.382;11.358;2023-08-31T07:49:51;96335.38;;;14.90;100.00
68197;BME280;55019;49.382;11.358;2023-08-31T07:52:17;96334.47;;;14.63;100.00
68197;BME280;55019;49.382;11.358;2023-08-31T07:54:43;96330.53;;;15.40;100.00
68197;BME280;55019;49.382;11.358;2023-08-31T07:57:08;96321.72;;;15.61;100.00
68197;BME280;55019;49.382;11.358;2023-08-31T07:59:34;96337.56;;;16.04;100.00
68197;BME280;55019;49.382;11.358;2023-08-31T08:02:00;96337.56;;;15.66;100.00
68197;BME280;55019;49.382;11.358;2023-08-31T08:04:25;96337.88;;;15.17;100.00
68197;BME280;55019;49.382;11.358;2023-08-31T08:06:52;96338.06;;;15.09;100.00
68197;BME280;55019;49.382;11.358;2023-08-31T08:09:18;96335.16;;;15.71;100.00
68197;BME280;55019;49.382;11.358;2023-08-31T08:11:43;96322.34;;;16.08;100.00
68197;BME280;55019;49.382;11.358;2023-08-31T08:14:09;96340.38;;;15.84;100.00
68197;BME280;55019;49.382;11.358;2023-08-31T08:16:35;96335.94;;;16.42;100.00
68197;BME280;55019;49.382;11.358;2023-08-31T08:19:02;96340.97;;;15.66;100.00
68197;BME280;55019;49.382;11.358;2023-08-31T08:21:27;96345.97;;;15.55;100.00
68197;BME280;55019;49.382;11.358;2023-08-31T08:23:53;96337.97;;;15.69;100.00
68197;BME280;55019;49.382;11.358;2023-08-31T08:26:19;96338.72;;;16.41;100.00
68197;BME280;55019;49.382;11.358;2023-08-31T08:28:44;96352.31;;;16.56;100.00
68197;BME280;55019;49.382;11.358;2023-08-31T08:31:11;96342.34;;;16.27;100.00
68197;BME280;55019;49.382;11.358;2023-08-31T08:33:37;96347.50;;;16.59;100.00
68197;BME280;55019;49.382;11.358;2023-08-31T08:36:03;96348.78;;;16.11;100.00
68197;BME280;55019;49.382;11.358;2023-08-31T08:38:28;96359.81;;;15.68;100.00
68197;BME280;55019;49.382;11.358;2023-08-31T08:40:54;96360.00;;;16.12;100.00
68197;BME280;55019;49.382;11.358;2023-08-31T08:43:24;96357.38;;;16.25;100.00
68197;BME280;55019;49.382;11.358;2023-08-31T08:45:52;96364.41;;;16.31;100.00
68197;BME280;55019;49.382;11.358;2023-08-31T08:48:18;96361.19;;;16.29;100.00
68197;BME280;55019;49.382;11.358;2023-08-31T08:50:46;96356.28;;;16.71;100.00
68197;BME280;55019;49.382;11.358;2023-08-31T08:53:12;96353.97;;;16.44;100.00
68197;BME280;55019;49.382;11.358;2023-08-31T08:55:41;96357.78;;;16.22;100.00
68197;BME280;55019;49.382;11.358;2023-08-31T08:58:21;96360.19;;;17.00;100.00
68197;BME280;55019;49.382;11.358;2023-08-31T09:00:47;96369.28;;;17.28;100.00
68197;BME280;55019;49.382;11.358;2023-08-31T09:03:13;96372.00;;;17.52;100.00
68197;BME280;55019;49.382;11.358;2023-08-31T09:05:39;96361.78;;;17.51;100.00
68197;BME280;55019;49.382;11.358;2023-08-31T09:08:05;96368.59;;;16.51;100.00
68197;BME280;55019;49.382;11.358;2023-08-31T09:10:34;96373.25;;;16.36;100.00
68197;BME280;55019;49.382;11.358;2023-08-31T09:13:00;96367.03;;;16.18;100.00
68197;BME280;55019;49.382;11.358;2023-08-31T09:15:36;96363.41;;;17.02;100.00
68197;BME280;55019;49.382;11.358;2023-08-31T09:18:02;96362.00;;;17.74;100.00
68197;BME280;55019;49.382;11.358;2023-08-31T09:20:28;96359.09;;;18.55;100.00
68197;BME280;55019;49.382;11.358;2023-08-31T09:22:55;96356.28;;;18.92;100.00
68197;BME280;55019;49.382;11.358;2023-08-31T09:25:21;96363.63;;;18.84;99.71
68197;BME280;55019;49.382;11.358;2023-08-31T09:27:48;96352.28;;;18.72;100.00
68197;BME280;55019;49.382;11.358;2023-08-31T09:30:14;96354.75;;;19.62;100.00
68197;BME280;55019;49.382;11.358;2023-08-31T09:32:40;96354.97;;;19.19;86.31
68197;BME280;55019;49.382;11.358;2023-08-31T09:35:10;96364.66;;;18.65;94.58
68197;BME280;55019;49.382;11.358;2023-08-31T09:37:36;96365.13;;;19.27;100.00
68197;BME280;55019;49.382;11.358;2023-08-31T09:40:03;96361.25;;;20.12;97.96
68197;BME280;55019;49.382;11.358;2023-08-31T09:42:38;96358.78;;;20.17;81.77
68197;BME280;55019;49.382;11.358;2023-08-31T09:45:04;96362.25;;;19.88;79.14
68197;BME280;55019;49.382;11.358;2023-08-31T09:47:30;96369.63;;;20.43;84.31
68197;BME280;55019;49.382;11.358;2023-08-31T09:49:57;96375.38;;;19.99;65.62
68197;BME280;55019;49.382;11.358;2023-08-31T09:52:24;96373.50;;;19.77;76.36
68197;BME280;55019;49.382;11.358;2023-08-31T09:54:51;96372.84;;;19.40;70.62
68197;BME280;55019;49.382;11.358;2023-08-31T09:57:20;96369.91;;;19.30;84.70
68197;BME280;55019;49.382;11.358;2023-08-31T09:59:46;96362.34;;;19.81;67.24
68197;BME280;55019;49.382;11.358;2023-08-31T10:02:13;96358.66;;;20.00;65.46
68197;BME280;55019;49.382;11.358;2023-08-31T10:04:42;96365.66;;;19.00;66.08
68197;BME280;55019;49.382;11.358;2023-08-31T10:07:08;96367.72;;;19.16;64.89
68197;BME280;55019;49.382;11.358;2023-08-31T10:09:35;96366.25;;;19.49;65.39
68197;BME280;55019;49.382;11.358;2023-08-31T10:12:04;96374.97;;;18.78;66.61
68197;BME280;55019;49.382;11.358;2023-08-31T10:14:30;96374.88;;;19.79;71.24
68197;BME280;55019;49.382;11.358;2023-08-31T10:16:56;96372.94;;;20.84;64.28
68197;BME280;55019;49.382;11.358;2023-08-31T10:19:23;96375.09;;;20.42;58.29
68197;BME280;55019;49.382;11.358;2023-08-31T10:21:49;96372.56;;;20.12;55.81
68197;BME280;55019;49.382;11.358;2023-08-31T10:24:15;96376.00;;;18.77;60.63
68197;BME280;55019;49.382;11.358;2023-08-31T10:26:40;96381.22;;;18.77;63.50
68197;BME280;55019;49.382;11.358;2023-08-31T10:29:25;96377.69;;;18.29;64.12
68197;BME280;55019;49.382;11.358;2023-08-31T10:31:52;96387.69;;;17.83;68.48
68197;BME280;55019;49.382;11.358;2023-08-31T10:34:34;96382.75;;;17.32;76.66
68197;BME280;55019;49.382;11.358;2023-08-31T10:37:01;96382.91;;;16.99;80.23
68197;BME280;55019;49.382;11.358;2023-08-31T10:39:37;96399.25;;;16.56;80.19
68197;BME280;55019;49.382;11.358;2023-08-31T10:42:03;96387.84;;;16.05;82.26
68197;BME280;55019;49.382;11.358;2023-08-31T10:44:34;96388.88;;;16.43;81.17
68197;BME280;55019;49.382;11.358;2023-08-31T10:47:03;96389.25;;;16.53;82.05
68197;BME280;55019;49.382;11.358;2023-08-31T10:49:29;96389.47;;;16.45;76.74
68197;BME280;55019;49.382;11.358;2023-08-31T10:52:20;96384.03;;;16.59;81.72
68197;BME280;55019;49.382;11.358;2023-08-31T10:54:46;96388.16;;;17.37;80.49
68197;BME280;55019;49.382;11.358;2023-08-31T10:57:13;96389.94;;;18.71;70.66
68197;BME280;55019;49.382;11.358;2023-08-31T10:59:47;96386.78;;;19.93;68.13
68197;BME280;55019;49.382;11.358;2023-08-31T11:02:41;96385.47;;;20.59;66.85
68197;BME280;55019;49.382;11.358;2023-08-31T11:07:42;96395.53;;;18.75;59.33
68197;BME280;55019;49.382;11.358;2023-08-31T11:10:19;96379.50;;;17.73;69.31
68197;BME280;55019;49.382;11.358;2023-08-31T11:12:47;96381.22;;;17.18;72.69
68197;BME280;55019;49.382;11.358;2023-08-31T11:15:14;96388.78;;;16.82;77.34
68197;BME280;55019;49.382;11.358;2023-08-31T11:17:41;96390.00;;;16.73;78.32
68197;BME280;55019;49.382;11.358;2023-08-31T11:20:16;96399.91;;;17.15;86.42
68197;BME280;55019;49.382;11.358;2023-08-31T11:22:44;96396.38;;;16.83;70.29
68197;BME280;55019;49.382;11.358;2023-08-31T11:25:11;96399.59;;;16.92;84.90
68197;BME280;55019;49.382;11.358;2023-08-31T11:27:37;96409.78;;;17.06;70.41
68197;BME280;55019;49.382;11.358;2023-08-31T11:30:10;96397.63;;;17.68;66.50
68197;BME280;55019;49.382;11.358;2023-08-31T11:32:36;96401.69;;;18.62;69.01
68197;BME280;55019;49.382;11.358;2023-08-31T11:35:02;96415.78;;;18.61;64.33
68197;BME280;55019;49.382;11.358;2023-08-31T11:37:29;96410.84;;;18.04;61.67
68197;BME280;55019;49.382;11.358;2023-08-31T11:39:55;96410.03;;;17.79;60.46
68197;BME280;55019;49.382;11.358;2023-08-31T11:42:21;96410.59;;;17.50;64.31
68197;BME280;55019;49.382;11.358;2023-08-31T11:44:49;96408.94;;;17.62;64.13
68197;BME280;55019;49.382;11.358;2023-08-31T11:47:16;96408.19;;;17.49;66.22
68197;BME280;55019;49.382;11.358;2023-08-31T11:49:42;96395.47;;;17.22;66.94
68197;BME280;55019;49.382;11.358;2023-08-31T11:52:12;96406.78;;;17.53;70.96
68197;BME280;55019;49.382;11.358;2023-08-31T11:54:39;96403.72;;;17.62;65.36
68197;BME280;55019;49.382;11.358;2023-08-31T11:57:09;96409.19;;;17.85;64.02
68197;BME280;55019;49.382;11.358;2023-08-31T11:59:36;96406.69;;;17.66;68.05
68197;BME280;55019;49.382;11.358;2023-08-31T12:02:06;96402.88;;;17.68;64.53
68197;BME280;55019;49.382;11.358;2023-08-31T12:04:32;96403.00;;;18.04;64.60
68197;BME280;55019;49.382;11.358;2023-08-31T12:07:02;96399.22;;;17.39;59.76
68197;BME280;55019;49.382;11.358;2023-08-31T12:09:32;96406.94;;;17.08;67.77
68197;BME280;55019;49.382;11.358;2023-08-31T12:11:58;96406.97;;;18.13;68.53
68197;BME280;55019;49.382;11.358;2023-08-31T12:14:25;96408.91;;;19.38;62.04
68197;BME280;55019;49.382;11.358;2023-08-31T12:16:59;96407.41;;;18.95;58.32
68197;BME280;55019;49.382;11.358;2023-08-31T12:19:26;96415.06;;;18.05;60.63
68197;BME280;55019;49.382;11.358;2023-08-31T12:21:52;96415.66;;;17.45;66.67
68197;BME280;55019;49.382;11.358;2023-08-31T12:24:18;96412.31;;;17.26;69.29
68197;BME280;55019;49.382;11.358;2023-08-31T12:26:44;96418.88;;;17.78;69.73
68197;BME280;55019;49.382;11.358;2023-08-31T12:29:10;96411.59;;;17.87;68.81
68197;BME280;55019;49.382;11.358;2023-08-31T12:31:36;96408.97;;;18.60;63.00
68197;BME280;55019;49.382;11.358;2023-08-31T12:34:02;96415.41;;;18.82;58.13
68197;BME280;55019;49.382;11.358;2023-08-31T12:36:30;96407.88;;;18.68;61.67
68197;BME280;55019;49.382;11.358;2023-08-31T12:38:57;96416.75;;;18.85;48.81
68197;BME280;55019;49.382;11.358;2023-08-31T12:41:24;96402.38;;;19.59;53.28
68197;BME280;55019;49.382;11.358;2023-08-31T12:43:49;96407.75;;;19.93;51.55
68197;BME280;55019;49.382;11.358;2023-08-31T12:46:15;96420.25;;;20.09;54.13
68197;BME280;55019;49.382;11.358;2023-08-31T12:48:42;96405.25;;;19.98;52.33
68197;BME280;55019;49.382;11.358;2023-08-31T12:51:08;96417.59;;;19.68;52.05
68197;BME280;55019;49.382;11.358;2023-08-31T12:53:37;96412.63;;;19.90;52.49